Terminal Aerodrome Forecast
Issued by NWS El Paso, TX

Home | Current Version | Previous Version | Text Only | Print | Product List | Glossary On
Versions: 1 2 3 4 5 6 7 8 9 10 11 12 13 14
279
FTUS44 KEPZ 232335
TAFELP
TAF
KELP 232335Z 2400/2424 VRB05KT P6SM FEW120 FEW250
     FM240300 14005KT P6SM FEW250
     FM241700 22006KT P6SM SCT250=

USA.gov is the U.S. government's official web portal to all federal, state and local government web resources and services.